Florencia — IBPD — position and weather

sailwx.info

Track history (hours):
 
Tides and Currents Weather Stations Pressure Air Temp Water Temp Dewpoint Dewpoint Depression Visibility Wind Speed Wind Dir Waves Ship Positions

Florencia

Last reported at 2014-Jul-25 03:09 UTC. Time now 2014-Jul-25 16:04 UTC.
Position N 39°06' E 013°17'.

Length 186 m; draft 6.2 m.

Type: Ship. MMSI: 247105900.

Date/timePositionNaut miles runAvg speedWind from/ knotsBaromVisibWave heightAir tempDewpointWater temp
2014-Jul-25 03:09N 39°06' E 013°17'1821.1
2014-Jul-25 02:17N 38°49' E 013°27'1115.0
2014-Jul-25 01:33N 38°40' E 013°33'1715.9
2014-Jul-25 00:30N 38°24' E 013°40'2121.5
2014-Jul-24 23:32N 38°03' E 013°42'4 3.3
2014-Jul-24 22:23N 37°59' E 013°42'0 0.0
2014-Jul-24 21:32N 37°59' E 013°42'0 0.0
2014-Jul-24 20:32N 37°59' E 013°42'0 0.0
2014-Jul-24 19:32N 37°59' E 013°42'0 0.0
2014-Jul-24 18:32N 37°59' E 013°42'0 0.0
2014-Jul-24 17:32N 37°59' E 013°42'0 0.0
2014-Jul-24 16:29N 37°59' E 013°42'0 0.0
2014-Jul-24 15:32N 37°59' E 013°42'0 0.0
2014-Jul-24 14:32N 37°59' E 013°42'0 0.0
2014-Jul-24 13:32N 37°59' E 013°42'0 0.0
2014-Jul-24 12:32N 37°59' E 013°42'0 0.0
2014-Jul-24 11:32N 37°59' E 013°42'0 0.0
2014-Jul-24 10:32N 37°59' E 013°42'0 0.0
2014-Jul-24 09:32N 37°59' E 013°42'0 0.0
2014-Jul-24 08:32N 37°59' E 013°42'1 0.5
2014-Jul-24 07:33N 37°59' E 013°43'1818.3
2014-Jul-24 06:33N 38°17' E 013°43'2222.1
2014-Jul-24 05:33N 38°38' E 013°34'17 0.6
2014-Jul-23 02:28N 38°55' E 013°36'1921.2
2014-Jul-23 01:33N 38°36' E 013°40'2121.3
2014-Jul-23 00:33N 38°15' E 013°43'1614.5
2014-Jul-22 23:28N 37°59' E 013°42'0 0.0
2014-Jul-22 22:31N 37°59' E 013°42'0 0.0
2014-Jul-22 21:31N 37°59' E 013°42'0 0.0
2014-Jul-22 20:28N 37°59' E 013°42'0 0.0
2014-Jul-22 19:31N 37°59' E 013°42'0 0.0
2014-Jul-22 18:28N 37°59' E 013°42'0 0.0
2014-Jul-22 17:28N 37°59' E 013°42'0 0.0
2014-Jul-22 16:31N 37°59' E 013°42'0 0.0
2014-Jul-22 15:31N 37°59' E 013°42'0 0.0
2014-Jul-22 14:31N 37°59' E 013°42'0 0.0
2014-Jul-22 13:31N 37°59' E 013°42'0 0.0
2014-Jul-22 12:31N 37°59' E 013°42'0 0.0
2014-Jul-22 11:31N 37°59' E 013°42'0 0.0
2014-Jul-22 10:31N 37°59' E 013°42'0 0.0
2014-Jul-22 09:25N 37°59' E 013°42'0 0.0
2014-Jul-22 08:33N 37°59' E 013°42'0 0.0
2014-Jul-22 07:34N 37°59' E 013°42'1312.8
2014-Jul-22 06:33N 38°12' E 013°44'2121.1
2014-Jul-22 05:33N 38°32' E 013°37'161 6.0
2014-Jul-21 02:33N 41°00' E 012°14'2121.4
2014-Jul-21 01:33N 40°40' E 012°23'6621.9
2014-Jul-20 22:33N 39°38' E 012°52'2221.7
2014-Jul-20 21:33N 39°18' E 013°02'2121.5
2014-Jul-20 20:33N 38°58' E 013°12'2121.4
2014-Jul-20 19:33N 38°37' E 013°20'2221.9
2014-Jul-20 18:34N 38°16' E 013°25'8 8.3
2014-Jul-20 17:33N 38°08' E 013°22'0 0.0
2014-Jul-20 16:33N 38°08' E 013°22'0 0.0
2014-Jul-20 15:33N 38°08' E 013°22'0 0.0
2014-Jul-20 14:33N 38°08' E 013°22'0 0.0
2014-Jul-20 13:33N 38°08' E 013°22'0 0.0
2014-Jul-20 12:33N 38°08' E 013°22'0 0.0
2014-Jul-20 11:33N 38°08' E 013°22'0 0.2
2014-Jul-20 10:33N 38°08' E 013°22'1211.6
2014-Jul-20 09:33N 38°17' E 013°14'1716.7
2014-Jul-20 08:33N 38°18' E 012°53'1919.0
2014-Jul-20 07:33N 38°15' E 012°29'71 4.7
2014-Jul-19 16:32N 37°34' E 011°15'2020.2
2014-Jul-19 15:33N 37°48' E 011°32'2020.4
2014-Jul-19 14:33N 38°02' E 011°52'1919.6
2014-Jul-19 13:34N 38°10' E 012°14'2020.2
2014-Jul-19 12:34N 38°16' E 012°39'2020.3
2014-Jul-19 11:34N 38°18' E 013°04'1818.4
2014-Jul-19 10:33N 38°10' E 013°26'4 3.4
2014-Jul-19 09:31N 38°08' E 013°22'0 0.0
2014-Jul-19 08:31N 38°08' E 013°22'0 0.0
2014-Jul-19 07:33N 38°08' E 013°22'3 3.1
2014-Jul-19 06:34N 38°10' E 013°25'2222.0
2014-Jul-19 05:33N 38°32' E 013°22'2222.1
2014-Jul-19 04:33N 38°53' E 013°15'2222.1
2014-Jul-19 03:33N 39°14' E 013°05'2222.2
2014-Jul-19 02:33N 39°35' E 012°55'2222.0
2014-Jul-19 01:33N 39°55' E 012°45'4422.1
2014-Jul-18 23:33N 40°37' E 012°25'2622.8
2014-Jul-18 22:24N 41°02' E 012°14'83 4.7
2014-Jul-18 04:33N 39°45' E 012°57'2121.4
2014-Jul-18 03:33N 39°25' E 013°06'2221.1
2014-Jul-18 02:32N 39°05' E 013°18'2121.7
2014-Jul-18 01:33N 38°46' E 013°28'2221.5
2014-Jul-18 00:33N 38°26' E 013°38'2121.3
2014-Jul-17 23:33N 38°05' E 013°44'6 5.7
2014-Jul-17 22:31N 37°59' E 013°42'0 0.0
2014-Jul-17 21:31N 37°59' E 013°42'0 0.0
2014-Jul-17 20:31N 37°59' E 013°42'0 0.0
2014-Jul-17 19:31N 37°59' E 013°42'0 0.0
2014-Jul-17 18:28N 37°59' E 013°42'0 0.0
2014-Jul-17 17:25N 37°59' E 013°42'0 0.0
2014-Jul-17 16:31N 37°59' E 013°42'0 0.0
2014-Jul-17 15:31N 37°59' E 013°42'0 0.0
2014-Jul-17 14:31N 37°59' E 013°42'0 0.0
2014-Jul-17 13:31N 37°59' E 013°42'0 0.0
2014-Jul-17 12:31N 37°59' E 013°42'0 0.0
2014-Jul-17 11:31N 37°59' E 013°42'0 0.0
2014-Jul-17 10:28N 37°59' E 013°42'0 0.0
2014-Jul-17 09:28N 37°59' E 013°42'0 0.0
2014-Jul-17 08:19N 37°59' E 013°42'0 0.0
2014-Jul-17 07:33N 37°59' E 013°42'10 9.7
2014-Jul-17 06:33N 38°09' E 013°44'2121.5
2014-Jul-17 05:33N 38°30' E 013°37'2121.5
2014-Jul-17 04:33N 38°49' E 013°26'2221.6
2014-Jul-17 03:33N 39°09' E 013°15'2921.7
2014-Jul-17 02:13N 39°36' E 013°02'3821.2
2014-Jul-17 00:25N 40°11' E 012°43'2221.3
2014-Jul-16 23:23N 40°32' E 012°32'1821.7
2014-Jul-16 22:33N 40°49' E 012°23'0 0.0
2014-Jul-16 08:10N 40°49' E 012°23'1321.3
2014-Jul-16 07:34N 40°37' E 012°29'11021.5
2014-Jul-16 02:25N 38°55' E 013°23'1821.2
2014-Jul-16 01:34N 38°38' E 013°32'2121.1
2014-Jul-16 00:33N 38°18' E 013°42'1919.2
2014-Jul-15 23:34N 37°59' E 013°43'0 0.5
2014-Jul-15 22:33N 37°59' E 013°42'0 0.0
2014-Jul-15 21:33N 37°59' E 013°42'0 0.0
2014-Jul-15 20:33N 37°59' E 013°42'0 0.0
2014-Jul-15 19:33N 37°59' E 013°42'0 0.0
2014-Jul-15 18:33N 37°59' E 013°42'0 0.0
2014-Jul-15 17:27N 37°59' E 013°42'0 0.0
2014-Jul-15 16:33N 37°59' E 013°42'0 0.0
2014-Jul-15 15:33N 37°59' E 013°42'0 0.0
2014-Jul-15 14:33N 37°59' E 013°42'0 0.0
2014-Jul-15 13:33N 37°59' E 013°42'0 0.0
2014-Jul-15 12:33N 37°59' E 013°42'0 0.0
2014-Jul-15 11:33N 37°59' E 013°42'0 0.0
2014-Jul-15 10:33N 37°59' E 013°42'0 0.0
2014-Jul-15 09:33N 37°59' E 013°42'0 0.0
2014-Jul-15 08:33N 37°59' E 013°42'0 0.0
2014-Jul-15 07:33N 37°59' E 013°42'9 8.7
2014-Jul-15 06:34N 38°08' E 013°44'2221.6
2014-Jul-15 05:34N 38°29' E 013°37'2221.5
2014-Jul-15 04:33N 38°49' E 013°27'  
Track history (hours):
 
Tides and Currents Weather Stations Pressure Air Temp Water Temp Dewpoint Dewpoint Depression Visibility Wind Speed Wind Dir Waves Ship Positions

Florencia

Last reported at 2014-Jul-25 03:09 UTC. Time now 2014-Jul-25 16:04 UTC.
Position N 39°06' E 013°17'.

Length 186 m; draft 6.2 m.

Type: Ship. MMSI: 247105900.

Date/timePositionNaut miles runAvg speedWind from/ knotsBaromVisibWave heightAir tempDewpointWater temp
2014-Jul-25 03:09N 39°06' E 013°17'1821.1
2014-Jul-25 02:17N 38°49' E 013°27'1115.0
2014-Jul-25 01:33N 38°40' E 013°33'1715.9
2014-Jul-25 00:30N 38°24' E 013°40'2121.5
2014-Jul-24 23:32N 38°03' E 013°42'4 3.3
2014-Jul-24 22:23N 37°59' E 013°42'0 0.0
2014-Jul-24 21:32N 37°59' E 013°42'0 0.0
2014-Jul-24 20:32N 37°59' E 013°42'0 0.0
2014-Jul-24 19:32N 37°59' E 013°42'0 0.0
2014-Jul-24 18:32N 37°59' E 013°42'0 0.0
2014-Jul-24 17:32N 37°59' E 013°42'0 0.0
2014-Jul-24 16:29N 37°59' E 013°42'0 0.0
2014-Jul-24 15:32N 37°59' E 013°42'0 0.0
2014-Jul-24 14:32N 37°59' E 013°42'0 0.0
2014-Jul-24 13:32N 37°59' E 013°42'0 0.0
2014-Jul-24 12:32N 37°59' E 013°42'0 0.0
2014-Jul-24 11:32N 37°59' E 013°42'0 0.0
2014-Jul-24 10:32N 37°59' E 013°42'0 0.0
2014-Jul-24 09:32N 37°59' E 013°42'0 0.0
2014-Jul-24 08:32N 37°59' E 013°42'1 0.5
2014-Jul-24 07:33N 37°59' E 013°43'1818.3
2014-Jul-24 06:33N 38°17' E 013°43'2222.1
2014-Jul-24 05:33N 38°38' E 013°34'17 0.6
2014-Jul-23 02:28N 38°55' E 013°36'1921.2
2014-Jul-23 01:33N 38°36' E 013°40'2121.3
2014-Jul-23 00:33N 38°15' E 013°43'1614.5
2014-Jul-22 23:28N 37°59' E 013°42'0 0.0
2014-Jul-22 22:31N 37°59' E 013°42'0 0.0
2014-Jul-22 21:31N 37°59' E 013°42'0 0.0
2014-Jul-22 20:28N 37°59' E 013°42'0 0.0
2014-Jul-22 19:31N 37°59' E 013°42'0 0.0
2014-Jul-22 18:28N 37°59' E 013°42'0 0.0
2014-Jul-22 17:28N 37°59' E 013°42'0 0.0
2014-Jul-22 16:31N 37°59' E 013°42'0 0.0
2014-Jul-22 15:31N 37°59' E 013°42'0 0.0
2014-Jul-22 14:31N 37°59' E 013°42'0 0.0
2014-Jul-22 13:31N 37°59' E 013°42'0 0.0
2014-Jul-22 12:31N 37°59' E 013°42'0 0.0
2014-Jul-22 11:31N 37°59' E 013°42'0 0.0
2014-Jul-22 10:31N 37°59' E 013°42'0 0.0
2014-Jul-22 09:25N 37°59' E 013°42'0 0.0
2014-Jul-22 08:33N 37°59' E 013°42'0 0.0
2014-Jul-22 07:34N 37°59' E 013°42'1312.8
2014-Jul-22 06:33N 38°12' E 013°44'2121.1
2014-Jul-22 05:33N 38°32' E 013°37'161 6.0
2014-Jul-21 02:33N 41°00' E 012°14'2121.4
2014-Jul-21 01:33N 40°40' E 012°23'6621.9
2014-Jul-20 22:33N 39°38' E 012°52'2221.7
2014-Jul-20 21:33N 39°18' E 013°02'2121.5
2014-Jul-20 20:33N 38°58' E 013°12'2121.4
2014-Jul-20 19:33N 38°37' E 013°20'2221.9
2014-Jul-20 18:34N 38°16' E 013°25'8 8.3
2014-Jul-20 17:33N 38°08' E 013°22'0 0.0
2014-Jul-20 16:33N 38°08' E 013°22'0 0.0
2014-Jul-20 15:33N 38°08' E 013°22'0 0.0
2014-Jul-20 14:33N 38°08' E 013°22'0 0.0
2014-Jul-20 13:33N 38°08' E 013°22'0 0.0
2014-Jul-20 12:33N 38°08' E 013°22'0 0.0
2014-Jul-20 11:33N 38°08' E 013°22'0 0.2
2014-Jul-20 10:33N 38°08' E 013°22'1211.6
2014-Jul-20 09:33N 38°17' E 013°14'1716.7
2014-Jul-20 08:33N 38°18' E 012°53'1919.0
2014-Jul-20 07:33N 38°15' E 012°29'71 4.7
2014-Jul-19 16:32N 37°34' E 011°15'2020.2
2014-Jul-19 15:33N 37°48' E 011°32'2020.4
2014-Jul-19 14:33N 38°02' E 011°52'1919.6
2014-Jul-19 13:34N 38°10' E 012°14'2020.2
2014-Jul-19 12:34N 38°16' E 012°39'2020.3
2014-Jul-19 11:34N 38°18' E 013°04'1818.4
2014-Jul-19 10:33N 38°10' E 013°26'4 3.4
2014-Jul-19 09:31N 38°08' E 013°22'0 0.0
2014-Jul-19 08:31N 38°08' E 013°22'0 0.0
2014-Jul-19 07:33N 38°08' E 013°22'3 3.1
2014-Jul-19 06:34N 38°10' E 013°25'2222.0
2014-Jul-19 05:33N 38°32' E 013°22'2222.1
2014-Jul-19 04:33N 38°53' E 013°15'2222.1
2014-Jul-19 03:33N 39°14' E 013°05'2222.2
2014-Jul-19 02:33N 39°35' E 012°55'2222.0
2014-Jul-19 01:33N 39°55' E 012°45'4422.1
2014-Jul-18 23:33N 40°37' E 012°25'2622.8
2014-Jul-18 22:24N 41°02' E 012°14'83 4.7
2014-Jul-18 04:33N 39°45' E 012°57'2121.4
2014-Jul-18 03:33N 39°25' E 013°06'2221.1
2014-Jul-18 02:32N 39°05' E 013°18'2121.7
2014-Jul-18 01:33N 38°46' E 013°28'2221.5
2014-Jul-18 00:33N 38°26' E 013°38'2121.3
2014-Jul-17 23:33N 38°05' E 013°44'6 5.7
2014-Jul-17 22:31N 37°59' E 013°42'0 0.0
2014-Jul-17 21:31N 37°59' E 013°42'0 0.0
2014-Jul-17 20:31N 37°59' E 013°42'0 0.0
2014-Jul-17 19:31N 37°59' E 013°42'0 0.0
2014-Jul-17 18:28N 37°59' E 013°42'0 0.0
2014-Jul-17 17:25N 37°59' E 013°42'0 0.0
2014-Jul-17 16:31N 37°59' E 013°42'0 0.0
2014-Jul-17 15:31N 37°59' E 013°42'0 0.0
2014-Jul-17 14:31N 37°59' E 013°42'0 0.0
2014-Jul-17 13:31N 37°59' E 013°42'0 0.0
2014-Jul-17 12:31N 37°59' E 013°42'0 0.0
2014-Jul-17 11:31N 37°59' E 013°42'0 0.0
2014-Jul-17 10:28N 37°59' E 013°42'0 0.0
2014-Jul-17 09:28N 37°59' E 013°42'0 0.0
2014-Jul-17 08:19N 37°59' E 013°42'0 0.0
2014-Jul-17 07:33N 37°59' E 013°42'10 9.7
2014-Jul-17 06:33N 38°09' E 013°44'2121.5
2014-Jul-17 05:33N 38°30' E 013°37'2121.5
2014-Jul-17 04:33N 38°49' E 013°26'2221.6
2014-Jul-17 03:33N 39°09' E 013°15'2921.7
2014-Jul-17 02:13N 39°36' E 013°02'3821.2
2014-Jul-17 00:25N 40°11' E 012°43'2221.3
2014-Jul-16 23:23N 40°32' E 012°32'1821.7
2014-Jul-16 22:33N 40°49' E 012°23'0 0.0
2014-Jul-16 08:10N 40°49' E 012°23'1321.3
2014-Jul-16 07:34N 40°37' E 012°29'11021.5
2014-Jul-16 02:25N 38°55' E 013°23'1821.2
2014-Jul-16 01:34N 38°38' E 013°32'2121.1
2014-Jul-16 00:33N 38°18' E 013°42'1919.2
2014-Jul-15 23:34N 37°59' E 013°43'0 0.5
2014-Jul-15 22:33N 37°59' E 013°42'0 0.0
2014-Jul-15 21:33N 37°59' E 013°42'0 0.0
2014-Jul-15 20:33N 37°59' E 013°42'0 0.0
2014-Jul-15 19:33N 37°59' E 013°42'0 0.0
2014-Jul-15 18:33N 37°59' E 013°42'0 0.0
2014-Jul-15 17:27N 37°59' E 013°42'0 0.0
2014-Jul-15 16:33N 37°59' E 013°42'0 0.0
2014-Jul-15 15:33N 37°59' E 013°42'0 0.0
2014-Jul-15 14:33N 37°59' E 013°42'0 0.0
2014-Jul-15 13:33N 37°59' E 013°42'0 0.0
2014-Jul-15 12:33N 37°59' E 013°42'0 0.0
2014-Jul-15 11:33N 37°59' E 013°42'0 0.0
2014-Jul-15 10:33N 37°59' E 013°42'0 0.0
2014-Jul-15 09:33N 37°59' E 013°42'0 0.0
2014-Jul-15 08:33N 37°59' E 013°42'0 0.0
2014-Jul-15 07:33N 37°59' E 013°42'9 8.7
2014-Jul-15 06:34N 38°08' E 013°44'2221.6
2014-Jul-15 05:34N 38°29' E 013°37'2221.5
2014-Jul-15 04:33N 38°49' E 013°27'  

Dump ship's entire track history